createdAt,value
2018-12-31T00:00:30.690Z,13.33
2018-12-31T00:03:04.490Z,13.37
2018-12-31T00:05:37.918Z,14.33
2018-12-31T00:08:11.127Z,15.00
2018-12-31T00:10:44.331Z,15.00
2018-12-31T00:13:17.230Z,15.90
2018-12-31T00:15:50.236Z,15.13
2018-12-31T00:18:23.340Z,14.77
2018-12-31T00:20:56.748Z,15.17
2018-12-31T00:23:30.275Z,17.33
2018-12-31T00:26:04.031Z,18.07
2018-12-31T00:28:37.832Z,16.87
2018-12-31T00:31:11.258Z,17.10
2018-12-31T00:33:44.722Z,16.20
2018-12-31T00:36:17.698Z,16.33
2018-12-31T00:38:50.672Z,16.37
2018-12-31T00:41:23.930Z,16.33
2018-12-31T00:43:56.934Z,16.07
2018-12-31T00:46:29.765Z,15.97
2018-12-31T00:49:02.689Z,15.93
2018-12-31T00:51:35.540Z,22.67
2018-12-31T00:54:08.399Z,19.20
2018-12-31T00:56:41.467Z,18.20
2018-12-31T00:59:14.534Z,18.00
2018-12-31T01:01:49.046Z,30.63
2018-12-31T01:04:21.979Z,25.57
2018-12-31T01:06:54.760Z,21.10
2018-12-31T01:09:27.869Z,20.73
2018-12-31T01:12:00.912Z,18.40
2018-12-31T01:14:34.023Z,25.47
2018-12-31T01:17:07.283Z,23.50
2018-12-31T01:19:40.400Z,20.10
2018-12-31T01:22:13.986Z,23.53
2018-12-31T01:24:47.390Z,23.23
2018-12-31T01:27:20.515Z,20.10
2018-12-31T01:29:53.330Z,25.03
2018-12-31T01:32:26.089Z,31.73
2018-12-31T01:34:59.160Z,25.37
2018-12-31T01:37:32.058Z,25.27
2018-12-31T01:40:05.065Z,26.00
2018-12-31T01:42:39.306Z,24.97
2018-12-31T01:45:13.371Z,22.50
2018-12-31T01:47:46.619Z,21.13
2018-12-31T01:50:19.495Z,19.87
2018-12-31T01:52:52.445Z,19.30
2018-12-31T01:55:25.403Z,21.40
2018-12-31T01:57:58.269Z,22.43
2018-12-31T02:00:31.737Z,21.33
2018-12-31T02:03:04.794Z,21.63
2018-12-31T02:05:38.045Z,20.30
2018-12-31T02:08:12.316Z,18.93
2018-12-31T02:10:45.173Z,19.73
2018-12-31T02:13:18.210Z,19.73
2018-12-31T02:15:52.390Z,18.67
2018-12-31T02:18:25.202Z,21.93
2018-12-31T02:20:57.979Z,20.90
2018-12-31T02:23:30.995Z,21.23
2018-12-31T02:26:03.809Z,26.50
2018-12-31T02:28:37.035Z,26.67
2018-12-31T02:31:11.084Z,25.10
2018-12-31T02:33:44.458Z,26.17
2018-12-31T02:36:17.234Z,25.60
2018-12-31T02:38:50.113Z,26.53
2018-12-31T02:41:22.852Z,25.27
2018-12-31T02:43:55.869Z,27.67
2018-12-31T02:46:29.056Z,28.30
2018-12-31T02:49:01.949Z,27.57
2018-12-31T02:51:35.125Z,27.13
2018-12-31T02:54:08.098Z,26.33
2018-12-31T02:56:41.203Z,24.90
2018-12-31T02:59:14.081Z,27.00
2018-12-31T03:01:47.093Z,27.43
2018-12-31T03:04:20.132Z,27.93
2018-12-31T03:06:53.270Z,29.90
2018-12-31T03:09:27.204Z,27.03
2018-12-31T03:12:00.288Z,24.93
2018-12-31T03:14:33.360Z,24.63
2018-12-31T03:17:06.332Z,25.27
2018-12-31T03:19:39.575Z,26.37
2018-12-31T03:22:13.707Z,27.03
2018-12-31T03:24:46.466Z,26.07
2018-12-31T03:27:19.279Z,25.47
2018-12-31T03:29:52.508Z,25.57
2018-12-31T03:32:26.752Z,33.02
2018-12-31T03:34:59.569Z,26.33
2018-12-31T03:37:32.622Z,26.50
2018-12-31T03:40:05.904Z,26.27
2018-12-31T03:42:38.913Z,26.13
2018-12-31T03:45:11.919Z,24.70
2018-12-31T03:51:05.282Z,24.13
2018-12-31T03:53:38.480Z,24.07
2018-12-31T03:56:11.535Z,20.40
2018-12-31T03:58:44.707Z,29.23
2018-12-31T04:01:17.906Z,34.30
2018-12-31T04:03:50.637Z,33.40
2018-12-31T04:06:23.780Z,31.93
2018-12-31T04:08:56.699Z,21.57
2018-12-31T04:11:29.801Z,20.93
2018-12-31T04:14:02.586Z,27.03
2018-12-31T04:16:35.291Z,22.30
2018-12-31T04:19:08.551Z,21.10
2018-12-31T04:21:41.569Z,19.93
2018-12-31T04:24:14.512Z,19.00
2018-12-31T04:26:47.476Z,18.40
2018-12-31T04:29:20.312Z,19.30
2018-12-31T04:31:54.166Z,17.80
2018-12-31T04:34:26.880Z,20.17
2018-12-31T04:36:59.920Z,21.03
2018-12-31T04:39:32.788Z,19.67
2018-12-31T04:42:05.815Z,19.53
2018-12-31T04:44:38.793Z,19.47
2018-12-31T04:47:12.179Z,18.50
2018-12-31T04:49:45.296Z,20.23
2018-12-31T04:52:18.554Z,18.80
2018-12-31T04:54:51.657Z,19.37
2018-12-31T04:57:24.655Z,17.40
2018-12-31T04:59:57.985Z,18.50
2018-12-31T05:02:30.909Z,18.40
2018-12-31T05:05:03.811Z,18.17
2018-12-31T05:07:36.726Z,21.13
2018-12-31T05:10:10.386Z,16.90
2018-12-31T05:12:43.295Z,16.03
2018-12-31T05:15:16.345Z,16.97
2018-12-31T05:17:49.371Z,16.50
2018-12-31T05:20:22.650Z,17.27
2018-12-31T05:22:55.343Z,16.70
2018-12-31T05:25:28.400Z,16.40
2018-12-31T05:28:01.119Z,15.63
2018-12-31T05:30:34.191Z,16.13
2018-12-31T05:33:07.224Z,15.80
2018-12-31T05:35:40.323Z,16.70
2018-12-31T05:38:13.276Z,18.37
2018-12-31T05:40:46.301Z,17.93
2018-12-31T05:43:19.596Z,25.83
2018-12-31T05:45:52.559Z,21.77
2018-12-31T05:48:25.720Z,17.07
2018-12-31T05:50:59.065Z,17.87
2018-12-31T05:53:31.952Z,17.20
2018-12-31T05:56:06.294Z,17.80
2018-12-31T05:58:39.243Z,17.83
2018-12-31T06:01:12.390Z,16.13
2018-12-31T06:03:45.331Z,16.20
2018-12-31T06:06:18.477Z,16.70
2018-12-31T06:08:51.417Z,18.60
2018-12-31T06:11:24.324Z,18.03
2018-12-31T06:13:57.325Z,19.90
2018-12-31T06:16:31.906Z,39.23
2018-12-31T06:19:04.752Z,31.97
2018-12-31T06:21:38.775Z,24.90
2018-12-31T06:24:11.745Z,22.57
2018-12-31T06:26:44.667Z,25.60
2018-12-31T06:29:18.782Z,26.13
2018-12-31T06:31:51.790Z,20.50
2018-12-31T06:34:24.649Z,28.47
2018-12-31T06:36:57.601Z,24.37
2018-12-31T06:39:30.589Z,23.73
2018-12-31T06:42:03.630Z,23.90
2018-12-31T06:44:38.032Z,27.63
2018-12-31T06:47:11.138Z,22.27
2018-12-31T06:49:44.456Z,21.57
2018-12-31T06:52:17.857Z,18.30
2018-12-31T06:54:50.898Z,21.10
2018-12-31T06:57:25.267Z,26.03
2018-12-31T06:59:58.322Z,20.77
2018-12-31T07:02:31.543Z,18.07
2018-12-31T07:05:04.719Z,20.17
2018-12-31T07:07:38.251Z,22.20
2018-12-31T07:10:11.612Z,21.67
2018-12-31T07:12:44.690Z,19.20
2018-12-31T07:15:17.919Z,19.97
2018-12-31T07:17:51.294Z,18.93
2018-12-31T07:20:26.195Z,18.50
2018-12-31T07:23:00.570Z,20.83
2018-12-31T07:25:36.664Z,20.97
2018-12-31T07:28:14.931Z,21.30
2018-12-31T07:30:49.805Z,20.13
2018-12-31T07:33:25.150Z,22.17
2018-12-31T07:36:02.627Z,23.60
2018-12-31T07:38:35.809Z,26.57
2018-12-31T07:41:09.091Z,24.47
2018-12-31T07:43:42.426Z,24.43
2018-12-31T07:46:15.461Z,23.73
2018-12-31T07:48:48.593Z,28.77
2018-12-31T07:51:21.538Z,24.90
2018-12-31T07:53:54.688Z,26.83
2018-12-31T07:56:27.614Z,25.17
2018-12-31T07:59:01.096Z,22.07
2018-12-31T08:01:34.207Z,22.90
2018-12-31T08:04:07.208Z,27.10
2018-12-31T08:06:40.690Z,20.87
2018-12-31T08:09:14.047Z,20.63
2018-12-31T08:11:47.417Z,19.33
2018-12-31T08:14:20.551Z,18.33
2018-12-31T08:16:53.802Z,17.87
2018-12-31T08:19:27.302Z,18.07
2018-12-31T08:22:00.326Z,17.27
2018-12-31T08:24:33.612Z,16.93
2018-12-31T08:27:06.522Z,19.53
2018-12-31T08:29:39.827Z,18.77
2018-12-31T08:32:13.016Z,15.73
2018-12-31T08:34:46.123Z,16.13
2018-12-31T08:37:19.703Z,14.50
2018-12-31T08:39:52.805Z,15.17
2018-12-31T08:42:25.654Z,14.63
2018-12-31T08:44:58.953Z,13.60
2018-12-31T08:47:32.101Z,17.10
2018-12-31T08:50:05.139Z,17.47
2018-12-31T08:52:38.912Z,17.97
2018-12-31T08:55:12.351Z,17.90
2018-12-31T08:57:45.775Z,17.73
2018-12-31T09:00:18.646Z,18.17
2018-12-31T09:02:51.717Z,24.27
2018-12-31T09:05:24.832Z,23.53
2018-12-31T09:07:58.058Z,24.77
2018-12-31T09:10:31.484Z,16.23
2018-12-31T09:13:04.669Z,13.63
2018-12-31T09:15:38.324Z,13.83
2018-12-31T09:18:11.364Z,12.73
2018-12-31T09:20:44.769Z,12.27
2018-12-31T09:23:17.824Z,12.83
2018-12-31T09:25:50.798Z,8.33
2018-12-31T09:28:23.718Z,6.93
2018-12-31T09:30:56.332Z,7.70
2018-12-31T09:33:29.282Z,8.43
2018-12-31T09:36:02.346Z,8.40
2018-12-31T09:38:35.371Z,8.40
2018-12-31T09:41:09.383Z,8.60
2018-12-31T09:43:42.415Z,8.77
2018-12-31T09:46:15.643Z,8.47
2018-12-31T09:48:48.595Z,8.90
2018-12-31T09:51:22.040Z,9.43
2018-12-31T09:53:55.408Z,7.87
2018-12-31T09:56:28.164Z,8.17
2018-12-31T09:59:00.970Z,8.03
2018-12-31T10:01:34.274Z,6.67
2018-12-31T10:04:07.510Z,6.13
2018-12-31T10:06:40.157Z,7.00
2018-12-31T10:09:13.481Z,6.80
2018-12-31T10:11:46.561Z,6.97
2018-12-31T10:14:19.720Z,7.37
2018-12-31T10:16:57.478Z,7.40
2018-12-31T10:19:30.859Z,7.03
2018-12-31T10:22:04.018Z,6.77
2018-12-31T10:24:37.024Z,6.80
2018-12-31T10:27:10.008Z,6.33
2018-12-31T10:29:43.086Z,6.63
2018-12-31T10:32:16.119Z,6.10
2018-12-31T10:34:49.517Z,6.23
2018-12-31T10:37:22.672Z,7.17
2018-12-31T10:39:56.245Z,6.23
2018-12-31T10:42:29.871Z,4.87
2018-12-31T10:45:03.083Z,6.30
2018-12-31T10:47:35.855Z,6.07
2018-12-31T10:50:10.947Z,6.63
2018-12-31T10:52:44.358Z,7.07
2018-12-31T10:55:17.912Z,6.83
2018-12-31T10:57:51.186Z,7.20
2018-12-31T11:00:27.317Z,6.90
2018-12-31T11:03:00.289Z,6.77
2018-12-31T11:05:33.687Z,6.97
2018-12-31T11:08:06.701Z,7.07
2018-12-31T11:10:40.140Z,6.13
2018-12-31T11:13:13.066Z,6.47
2018-12-31T11:15:46.424Z,8.03
2018-12-31T11:18:19.915Z,6.93
2018-12-31T11:20:53.072Z,6.53
2018-12-31T11:23:26.730Z,7.40
2018-12-31T11:25:59.883Z,7.13
2018-12-31T11:28:33.411Z,7.90
2018-12-31T11:31:06.706Z,6.97
2018-12-31T11:33:39.891Z,7.43
2018-12-31T11:36:13.419Z,7.17
2018-12-31T11:38:46.701Z,7.33
2018-12-31T11:41:20.159Z,6.60
2018-12-31T11:43:53.478Z,6.77
2018-12-31T11:46:26.686Z,7.30
2018-12-31T11:49:00.201Z,7.77
2018-12-31T11:51:33.665Z,6.83
2018-12-31T11:54:06.847Z,7.30
2018-12-31T11:56:40.457Z,7.67
2018-12-31T11:59:13.761Z,7.30
2018-12-31T12:01:46.996Z,7.20
2018-12-31T12:04:19.914Z,7.23
2018-12-31T12:06:53.496Z,6.57
2018-12-31T12:09:28.284Z,7.40
2018-12-31T12:12:01.232Z,7.17
2018-12-31T12:14:34.715Z,8.10
2018-12-31T12:17:07.753Z,7.40
2018-12-31T12:19:41.042Z,6.77
2018-12-31T12:22:14.376Z,6.83
2018-12-31T12:24:47.691Z,6.87
2018-12-31T12:27:21.138Z,6.50
2018-12-31T12:29:54.227Z,6.80
2018-12-31T12:32:31.031Z,6.27
2018-12-31T12:35:04.220Z,6.83
2018-12-31T12:37:38.018Z,11.90
2018-12-31T12:40:12.288Z,9.40
2018-12-31T12:52:26.368Z,10.27
2018-12-31T12:54:59.556Z,8.30
2018-12-31T12:57:33.233Z,7.27
2018-12-31T13:00:07.272Z,6.87
2018-12-31T13:02:40.708Z,7.17
2018-12-31T13:05:14.224Z,6.80
2018-12-31T13:07:47.381Z,6.43
2018-12-31T13:10:20.385Z,6.17
2018-12-31T13:12:53.659Z,6.37
2018-12-31T13:15:26.638Z,6.50
2018-12-31T13:18:00.049Z,6.13
2018-12-31T13:20:33.419Z,5.80
2018-12-31T13:23:06.484Z,6.23
2018-12-31T13:25:39.843Z,6.13
2018-12-31T13:28:15.868Z,6.33
2018-12-31T13:30:49.007Z,6.27
2018-12-31T13:33:22.014Z,6.10
2018-12-31T13:35:55.764Z,6.33
2018-12-31T13:38:29.104Z,5.30
2018-12-31T13:41:02.452Z,6.93
2018-12-31T13:43:35.824Z,6.00
2018-12-31T13:46:08.968Z,6.77
2018-12-31T13:48:42.447Z,6.13
2018-12-31T13:51:15.352Z,6.47
2018-12-31T13:53:50.813Z,8.10
2018-12-31T13:56:24.911Z,8.93
2018-12-31T13:58:58.243Z,7.43
2018-12-31T14:01:33.703Z,6.93
2018-12-31T14:04:07.885Z,7.80
2018-12-31T14:06:41.416Z,8.07
2018-12-31T14:09:14.636Z,7.53
2018-12-31T14:11:47.939Z,7.70
2018-12-31T14:14:22.011Z,6.87
2018-12-31T14:16:55.175Z,9.15
2018-12-31T14:19:28.964Z,7.43
2018-12-31T14:22:02.486Z,7.50
2018-12-31T14:24:35.907Z,8.03
2018-12-31T14:27:09.174Z,7.67
2018-12-31T14:29:42.487Z,7.63
2018-12-31T14:32:15.973Z,7.00
2018-12-31T14:34:49.512Z,6.90
2018-12-31T14:37:23.236Z,7.07
2018-12-31T14:39:56.632Z,6.80
2018-12-31T14:42:30.196Z,6.53
2018-12-31T14:45:03.487Z,6.93
2018-12-31T14:47:36.708Z,7.50
2018-12-31T14:50:10.159Z,7.13
2018-12-31T14:52:43.082Z,7.63
2018-12-31T14:55:16.739Z,7.80
2018-12-31T14:57:50.088Z,7.03
2018-12-31T15:00:23.680Z,6.63
2018-12-31T15:02:56.617Z,6.73
2018-12-31T15:05:29.968Z,6.57
2018-12-31T15:08:03.403Z,7.40
2018-12-31T15:10:37.121Z,6.63
2018-12-31T15:13:10.862Z,7.57
2018-12-31T15:15:45.252Z,8.13
2018-12-31T15:18:39.140Z,5.97
2018-12-31T15:21:13.062Z,6.67
2018-12-31T15:23:46.433Z,6.73
2018-12-31T15:26:19.997Z,6.30
2018-12-31T15:28:53.838Z,5.97
2018-12-31T15:31:27.423Z,5.83
2018-12-31T15:34:01.109Z,6.50
2018-12-31T15:36:34.580Z,6.30
2018-12-31T15:39:09.360Z,6.80
2018-12-31T15:41:42.930Z,9.17
2018-12-31T15:44:17.875Z,9.23
2018-12-31T15:46:51.669Z,8.90
2018-12-31T15:49:25.188Z,7.00
2018-12-31T15:52:01.129Z,6.63
2018-12-31T15:54:34.652Z,7.50
2018-12-31T15:57:08.430Z,7.20
2018-12-31T15:59:43.863Z,7.23
2018-12-31T16:02:17.489Z,8.10
2018-12-31T16:04:51.549Z,11.83
2018-12-31T16:07:27.788Z,18.70
2018-12-31T16:10:01.835Z,17.60
2018-12-31T16:12:35.191Z,14.77
2018-12-31T16:15:10.032Z,15.57
2018-12-31T16:17:43.400Z,18.27
2018-12-31T16:20:18.065Z,16.60
2018-12-31T16:22:51.401Z,15.80
2018-12-31T16:25:26.117Z,17.13
2018-12-31T16:27:59.320Z,13.63
2018-12-31T16:30:32.575Z,11.20
2018-12-31T16:33:06.311Z,11.17
2018-12-31T16:35:39.629Z,13.10
2018-12-31T16:38:13.055Z,12.10
2018-12-31T16:40:46.219Z,16.27
2018-12-31T16:43:20.256Z,13.97
2018-12-31T16:45:53.820Z,12.37
2018-12-31T16:48:27.434Z,10.00
2018-12-31T16:51:00.796Z,11.40
2018-12-31T16:53:33.994Z,15.70
2018-12-31T16:56:07.321Z,15.33
2018-12-31T16:58:40.854Z,12.83
2018-12-31T17:01:14.121Z,11.83
2018-12-31T17:03:47.698Z,12.30
2018-12-31T17:06:21.024Z,11.07
2018-12-31T17:08:58.058Z,11.33
2018-12-31T17:11:31.272Z,9.77
2018-12-31T17:14:04.744Z,9.53
2018-12-31T17:16:37.788Z,8.20
2018-12-31T17:19:11.919Z,8.17
2018-12-31T17:21:45.385Z,7.50
2018-12-31T17:24:18.382Z,7.20
2018-12-31T17:26:51.675Z,7.77
2018-12-31T17:29:24.788Z,7.23
2018-12-31T17:31:58.458Z,6.87
2018-12-31T17:34:31.717Z,7.77
2018-12-31T17:37:06.015Z,7.13
2018-12-31T17:39:40.179Z,7.83
2018-12-31T17:42:14.238Z,7.67
2018-12-31T17:44:47.694Z,7.80
2018-12-31T17:47:20.661Z,8.50
2018-12-31T17:49:54.540Z,9.37
2018-12-31T17:52:27.355Z,8.80
2018-12-31T17:55:00.590Z,7.93
2018-12-31T17:57:33.495Z,7.57
2018-12-31T18:00:08.515Z,7.37
2018-12-31T18:02:41.648Z,7.73
2018-12-31T18:05:14.827Z,10.03
2018-12-31T18:07:48.234Z,9.40
2018-12-31T18:10:21.270Z,7.73
2018-12-31T18:12:54.616Z,7.33
2018-12-31T18:15:27.806Z,7.27
2018-12-31T18:18:00.963Z,7.33
2018-12-31T18:20:34.634Z,7.70
2018-12-31T18:23:07.598Z,7.40
2018-12-31T18:25:41.288Z,7.30
2018-12-31T18:28:14.135Z,7.10
2018-12-31T18:30:47.438Z,7.70
2018-12-31T18:33:20.524Z,7.33
2018-12-31T18:35:53.486Z,7.50
2018-12-31T18:38:27.167Z,7.67
2018-12-31T18:41:00.346Z,7.07
2018-12-31T18:43:33.285Z,7.20
2018-12-31T18:46:07.099Z,7.27
2018-12-31T18:48:49.284Z,7.43
2018-12-31T18:51:25.780Z,7.73
2018-12-31T18:54:01.958Z,7.57
2018-12-31T18:56:41.327Z,7.17
2018-12-31T18:59:15.766Z,7.60
2018-12-31T19:01:53.095Z,7.57
2018-12-31T19:04:29.500Z,8.67
2018-12-31T19:07:05.540Z,9.47
2018-12-31T19:09:39.264Z,9.50
2018-12-31T19:12:16.043Z,9.70
2018-12-31T19:14:53.090Z,10.53
2018-12-31T19:17:30.302Z,11.03
2018-12-31T19:20:06.867Z,12.60
2018-12-31T19:22:42.830Z,11.30
2018-12-31T19:25:21.305Z,11.70
2018-12-31T19:27:59.780Z,11.40
2018-12-31T19:30:35.443Z,11.00
2018-12-31T19:33:11.695Z,11.97
2018-12-31T19:35:49.274Z,11.13
2018-12-31T19:38:25.339Z,11.30
2018-12-31T19:41:02.121Z,11.00
2018-12-31T19:43:40.353Z,9.63
2018-12-31T19:46:17.843Z,13.43
2018-12-31T19:48:52.073Z,18.67
2018-12-31T19:51:27.874Z,19.37
2018-12-31T19:54:02.933Z,13.60
2018-12-31T19:56:37.790Z,10.10
2018-12-31T19:59:13.495Z,9.20
2018-12-31T20:01:50.315Z,10.53
2018-12-31T20:04:26.412Z,11.00
2018-12-31T20:07:01.615Z,10.57
2018-12-31T20:09:37.543Z,10.43
2018-12-31T20:12:14.048Z,15.63
2018-12-31T20:14:47.551Z,15.53
2018-12-31T20:17:20.760Z,12.53
2018-12-31T20:19:53.960Z,11.33
2018-12-31T20:22:27.038Z,10.87
2018-12-31T20:24:59.752Z,10.33
2018-12-31T20:27:32.828Z,9.37
2018-12-31T20:30:06.479Z,9.83
2018-12-31T20:32:39.597Z,9.87
2018-12-31T20:35:12.622Z,9.73
2018-12-31T20:37:46.137Z,10.47
2018-12-31T20:40:18.990Z,11.03
2018-12-31T20:42:52.346Z,11.97
2018-12-31T20:45:25.706Z,10.40
2018-12-31T20:48:01.891Z,9.67
2018-12-31T20:50:34.077Z,8.90
2018-12-31T20:53:07.875Z,13.47
2018-12-31T20:55:40.601Z,14.03
2018-12-31T20:58:13.614Z,11.83
2018-12-31T21:00:46.881Z,11.90
2018-12-31T21:03:20.167Z,11.20
2018-12-31T21:05:53.193Z,11.10
2018-12-31T21:08:26.535Z,11.30
2018-12-31T21:10:59.686Z,11.00
2018-12-31T21:13:32.507Z,10.33
2018-12-31T21:16:05.739Z,10.80
2018-12-31T21:18:39.011Z,10.90
2018-12-31T21:21:12.659Z,10.40
2018-12-31T21:23:46.174Z,11.57
2018-12-31T21:26:19.709Z,10.07
2018-12-31T21:28:52.642Z,9.57
2018-12-31T21:31:26.202Z,10.57
2018-12-31T21:33:59.441Z,10.20
2018-12-31T21:36:32.455Z,10.13
2018-12-31T21:39:07.043Z,10.47
2018-12-31T21:41:40.116Z,10.50
2018-12-31T21:44:13.167Z,10.63
2018-12-31T21:46:46.051Z,10.50
2018-12-31T21:49:19.628Z,10.50
2018-12-31T21:51:52.875Z,13.75
2018-12-31T21:54:26.612Z,11.97
2018-12-31T21:57:02.366Z,11.13
2018-12-31T21:59:35.864Z,10.50
2018-12-31T22:02:09.441Z,12.00
2018-12-31T22:04:42.782Z,12.80
2018-12-31T22:07:16.815Z,12.57
2018-12-31T22:09:50.165Z,10.40
2018-12-31T22:12:23.318Z,10.90
2018-12-31T22:14:56.672Z,11.57
2018-12-31T22:17:30.163Z,11.00
2018-12-31T22:20:03.420Z,11.20
2018-12-31T22:22:36.690Z,10.63
2018-12-31T22:25:10.217Z,9.93
2018-12-31T22:27:43.854Z,12.47
2018-12-31T22:30:17.197Z,14.17
2018-12-31T22:32:50.499Z,16.80
2018-12-31T22:35:23.820Z,17.73
2018-12-31T22:37:57.444Z,18.87
2018-12-31T22:40:30.795Z,19.87
2018-12-31T22:43:03.830Z,19.77
2018-12-31T22:45:37.020Z,23.17
2018-12-31T22:48:10.028Z,28.80
2018-12-31T22:50:43.434Z,21.37
2018-12-31T22:53:16.757Z,23.03
2018-12-31T22:55:50.123Z,21.40
2018-12-31T22:58:23.201Z,25.80
2018-12-31T23:00:56.036Z,23.03
2018-12-31T23:03:29.489Z,20.93
2018-12-31T23:06:02.610Z,22.30
2018-12-31T23:08:35.919Z,25.47
2018-12-31T23:11:09.456Z,21.73
2018-12-31T23:13:44.447Z,26.43
2018-12-31T23:16:23.404Z,25.83
2018-12-31T23:18:57.063Z,23.23
2018-12-31T23:21:29.809Z,21.50
2018-12-31T23:24:02.613Z,21.37
2018-12-31T23:26:36.309Z,20.57
2018-12-31T23:29:09.478Z,21.90
2018-12-31T23:31:42.747Z,28.23
2018-12-31T23:34:16.032Z,28.17
2018-12-31T23:36:48.914Z,32.43
2018-12-31T23:39:23.677Z,51.67
2018-12-31T23:41:57.056Z,32.97
2018-12-31T23:44:30.904Z,34.70
2018-12-31T23:47:04.324Z,34.20
2018-12-31T23:49:37.479Z,38.70
2018-12-31T23:52:10.939Z,35.77
2018-12-31T23:54:44.446Z,44.30
2018-12-31T23:57:18.018Z,49.00
2018-12-31T23:59:51.507Z,49.23
